sensor_id;sensor_type;location;lat;lon;timestamp;P1;durP1;ratioP1;P2;durP2;ratioP2
17449;SDS011;8842;51.244;7.102;2022-11-20T00:02:15;7.57;;;7.13;;
17449;SDS011;8842;51.244;7.102;2022-11-20T00:07:19;9.00;;;8.27;;
17449;SDS011;8842;51.244;7.102;2022-11-20T00:12:33;7.17;;;6.77;;
17449;SDS011;8842;51.244;7.102;2022-11-20T00:17:45;7.00;;;6.70;;
17449;SDS011;8842;51.244;7.102;2022-11-20T00:22:50;8.03;;;7.50;;
17449;SDS011;8842;51.244;7.102;2022-11-20T00:27:54;8.17;;;7.63;;
17449;SDS011;8842;51.244;7.102;2022-11-20T00:33:06;6.97;;;6.67;;
17449;SDS011;8842;51.244;7.102;2022-11-20T00:43:21;7.97;;;7.57;;
17449;SDS011;8842;51.244;7.102;2022-11-20T00:48:25;6.87;;;6.57;;
17449;SDS011;8842;51.244;7.102;2022-11-20T00:58:42;7.00;;;6.70;;
17449;SDS011;8842;51.244;7.102;2022-11-20T01:08:59;7.20;;;6.90;;
17449;SDS011;8842;51.244;7.102;2022-11-20T01:14:07;7.70;;;7.30;;
17449;SDS011;8842;51.244;7.102;2022-11-20T01:19:19;7.23;;;6.93;;
17449;SDS011;8842;51.244;7.102;2022-11-20T01:24:24;7.93;;;7.30;;
17449;SDS011;8842;51.244;7.102;2022-11-20T01:29:29;7.00;;;6.70;;
17449;SDS011;8842;51.244;7.102;2022-11-20T01:34:43;6.90;;;6.60;;
17449;SDS011;8842;51.244;7.102;2022-11-20T01:39:48;6.80;;;6.50;;
17449;SDS011;8842;51.244;7.102;2022-11-20T01:45:00;7.10;;;6.80;;
17449;SDS011;8842;51.244;7.102;2022-11-20T01:50:05;6.97;;;6.67;;
17449;SDS011;8842;51.244;7.102;2022-11-20T01:55:21;7.40;;;7.00;;
17449;SDS011;8842;51.244;7.102;2022-11-20T02:00:27;7.60;;;7.20;;
17449;SDS011;8842;51.244;7.102;2022-11-20T02:05:43;6.90;;;6.60;;
17449;SDS011;8842;51.244;7.102;2022-11-20T02:10:49;6.87;;;6.57;;
17449;SDS011;8842;51.244;7.102;2022-11-20T02:15:54;7.37;;;6.97;;
17449;SDS011;8842;51.244;7.102;2022-11-20T02:21:06;7.10;;;6.70;;
17449;SDS011;8842;51.244;7.102;2022-11-20T02:26:13;7.23;;;6.73;;
17449;SDS011;8842;51.244;7.102;2022-11-20T02:31:25;8.13;;;7.33;;
17449;SDS011;8842;51.244;7.102;2022-11-20T02:36:30;6.93;;;6.57;;
17449;SDS011;8842;51.244;7.102;2022-11-20T02:41:49;7.10;;;6.80;;
17449;SDS011;8842;51.244;7.102;2022-11-20T02:46:57;7.10;;;6.80;;
17449;SDS011;8842;51.244;7.102;2022-11-20T02:52:01;7.40;;;7.00;;
17449;SDS011;8842;51.244;7.102;2022-11-20T03:02:19;7.00;;;6.70;;
17449;SDS011;8842;51.244;7.102;2022-11-20T03:12:34;8.23;;;7.47;;
17449;SDS011;8842;51.244;7.102;2022-11-20T03:17:46;6.90;;;6.60;;
17449;SDS011;8842;51.244;7.102;2022-11-20T03:22:51;7.47;;;7.07;;
17449;SDS011;8842;51.244;7.102;2022-11-20T03:28:06;7.30;;;6.90;;
17449;SDS011;8842;51.244;7.102;2022-11-20T03:33:11;6.67;;;6.37;;
17449;SDS011;8842;51.244;7.102;2022-11-20T03:38:22;6.93;;;6.53;;
17449;SDS011;8842;51.244;7.102;2022-11-20T03:43:27;7.30;;;6.90;;
17449;SDS011;8842;51.244;7.102;2022-11-20T03:48:40;7.00;;;6.70;;
17449;SDS011;8842;51.244;7.102;2022-11-20T03:53:45;6.67;;;6.37;;
17449;SDS011;8842;51.244;7.102;2022-11-20T03:58:57;7.03;;;6.73;;
17449;SDS011;8842;51.244;7.102;2022-11-20T04:04:02;7.30;;;7.00;;
17449;SDS011;8842;51.244;7.102;2022-11-20T04:09:14;7.43;;;7.03;;
17449;SDS011;8842;51.244;7.102;2022-11-20T04:19:31;7.60;;;7.10;;
17449;SDS011;8842;51.244;7.102;2022-11-20T04:24:35;7.20;;;6.63;;
17449;SDS011;8842;51.244;7.102;2022-11-20T04:29:47;7.30;;;6.90;;
17449;SDS011;8842;51.244;7.102;2022-11-20T04:34:51;7.30;;;6.90;;
17449;SDS011;8842;51.244;7.102;2022-11-20T04:40:04;6.60;;;6.30;;
17449;SDS011;8842;51.244;7.102;2022-11-20T04:45:09;7.07;;;6.70;;
17449;SDS011;8842;51.244;7.102;2022-11-20T04:50:23;7.43;;;7.00;;
17449;SDS011;8842;51.244;7.102;2022-11-20T04:55:34;6.80;;;6.50;;
17449;SDS011;8842;51.244;7.102;2022-11-20T05:00:39;7.10;;;6.70;;
17449;SDS011;8842;51.244;7.102;2022-11-20T05:05:53;7.73;;;7.33;;
17449;SDS011;8842;51.244;7.102;2022-11-20T05:11:00;7.00;;;6.70;;
17449;SDS011;8842;51.244;7.102;2022-11-20T05:16:06;7.03;;;6.73;;
17449;SDS011;8842;51.244;7.102;2022-11-20T05:21:12;7.07;;;6.77;;
17449;SDS011;8842;51.244;7.102;2022-11-20T05:26:17;8.07;;;7.67;;
17449;SDS011;8842;51.244;7.102;2022-11-20T05:31:32;7.30;;;6.90;;
17449;SDS011;8842;51.244;7.102;2022-11-20T05:36:36;6.70;;;6.40;;
17449;SDS011;8842;51.244;7.102;2022-11-20T05:41:40;7.20;;;6.80;;
17449;SDS011;8842;51.244;7.102;2022-11-20T05:47:00;6.97;;;6.67;;
17449;SDS011;8842;51.244;7.102;2022-11-20T05:57:17;7.20;;;6.90;;
17449;SDS011;8842;51.244;7.102;2022-11-20T06:02:22;7.17;;;6.87;;
17449;SDS011;8842;51.244;7.102;2022-11-20T06:07:42;7.23;;;6.83;;
17449;SDS011;8842;51.244;7.102;2022-11-20T06:12:54;6.90;;;6.60;;
17449;SDS011;8842;51.244;7.102;2022-11-20T06:18:16;7.20;;;6.90;;
17449;SDS011;8842;51.244;7.102;2022-11-20T06:28:34;7.13;;;6.67;;
17449;SDS011;8842;51.244;7.102;2022-11-20T06:33:38;7.73;;;7.00;;
17449;SDS011;8842;51.244;7.102;2022-11-20T06:38:53;7.20;;;6.90;;
17449;SDS011;8842;51.244;7.102;2022-11-20T06:43:58;7.50;;;7.10;;
17449;SDS011;8842;51.244;7.102;2022-11-20T06:49:11;6.80;;;6.50;;
17449;SDS011;8842;51.244;7.102;2022-11-20T06:54:16;7.10;;;6.80;;
17449;SDS011;8842;51.244;7.102;2022-11-20T07:04:31;7.10;;;6.50;;
17449;SDS011;8842;51.244;7.102;2022-11-20T07:09:35;6.67;;;6.37;;
17449;SDS011;8842;51.244;7.102;2022-11-20T07:14:39;15.20;;;7.50;;
17449;SDS011;8842;51.244;7.102;2022-11-20T07:19:53;7.63;;;7.23;;
17449;SDS011;8842;51.244;7.102;2022-11-20T07:30:17;7.40;;;7.00;;
17449;SDS011;8842;51.244;7.102;2022-11-20T07:35:22;7.20;;;6.80;;
17449;SDS011;8842;51.244;7.102;2022-11-20T07:40:43;6.77;;;6.47;;
17449;SDS011;8842;51.244;7.102;2022-11-20T07:51:01;7.23;;;6.93;;
17449;SDS011;8842;51.244;7.102;2022-11-20T08:01:18;6.80;;;6.50;;
17449;SDS011;8842;51.244;7.102;2022-11-20T08:11:37;6.70;;;6.40;;
17449;SDS011;8842;51.244;7.102;2022-11-20T08:17:00;7.20;;;6.80;;
17449;SDS011;8842;51.244;7.102;2022-11-20T08:22:12;6.80;;;6.40;;
17449;SDS011;8842;51.244;7.102;2022-11-20T08:27:16;6.60;;;6.30;;
17449;SDS011;8842;51.244;7.102;2022-11-20T08:32:28;6.00;;;5.70;;
17449;SDS011;8842;51.244;7.102;2022-11-20T08:37:32;6.50;;;6.20;;
17449;SDS011;8842;51.244;7.102;2022-11-20T08:42:36;8.17;;;7.37;;
17449;SDS011;8842;51.244;7.102;2022-11-20T08:47:40;6.90;;;6.60;;
17449;SDS011;8842;51.244;7.102;2022-11-20T08:52:45;7.53;;;7.00;;
17449;SDS011;8842;51.244;7.102;2022-11-20T08:57:57;6.77;;;6.47;;
17449;SDS011;8842;51.244;7.102;2022-11-20T09:03:01;6.80;;;6.50;;
17449;SDS011;8842;51.244;7.102;2022-11-20T09:08:05;6.97;;;6.67;;
17449;SDS011;8842;51.244;7.102;2022-11-20T09:13:09;8.80;;;8.20;;
17449;SDS011;8842;51.244;7.102;2022-11-20T09:18:14;8.07;;;7.67;;
17449;SDS011;8842;51.244;7.102;2022-11-20T09:23:18;7.43;;;7.13;;
17449;SDS011;8842;51.244;7.102;2022-11-20T09:33:33;7.50;;;7.20;;
17449;SDS011;8842;51.244;7.102;2022-11-20T09:43:50;7.30;;;7.00;;
17449;SDS011;8842;51.244;7.102;2022-11-20T09:49:03;7.40;;;7.00;;
17449;SDS011;8842;51.244;7.102;2022-11-20T09:54:21;7.00;;;6.70;;
17449;SDS011;8842;51.244;7.102;2022-11-20T09:59:33;7.40;;;7.00;;
17449;SDS011;8842;51.244;7.102;2022-11-20T10:04:42;5.97;;;5.70;;
17449;SDS011;8842;51.244;7.102;2022-11-20T10:09:50;6.20;;;5.90;;
17449;SDS011;8842;51.244;7.102;2022-11-20T10:14:58;6.00;;;5.70;;
17449;SDS011;8842;51.244;7.102;2022-11-20T10:20:25;7.37;;;6.97;;
17449;SDS011;8842;51.244;7.102;2022-11-20T10:25:39;6.40;;;6.10;;
17449;SDS011;8842;51.244;7.102;2022-11-20T10:30:45;6.00;;;5.70;;
17449;SDS011;8842;51.244;7.102;2022-11-20T10:36:07;6.00;;;5.70;;
17449;SDS011;8842;51.244;7.102;2022-11-20T10:46:26;5.60;;;5.40;;
17449;SDS011;8842;51.244;7.102;2022-11-20T10:52:10;5.90;;;5.60;;
17449;SDS011;8842;51.244;7.102;2022-11-20T10:57:29;6.30;;;6.00;;
17449;SDS011;8842;51.244;7.102;2022-11-20T11:02:44;5.27;;;5.07;;
17449;SDS011;8842;51.244;7.102;2022-11-20T11:07:51;7.40;;;6.17;;
17449;SDS011;8842;51.244;7.102;2022-11-20T11:13:04;6.63;;;6.13;;
17449;SDS011;8842;51.244;7.102;2022-11-20T11:18:09;5.47;;;5.27;;
17449;SDS011;8842;51.244;7.102;2022-11-20T11:23:30;5.30;;;5.10;;
17449;SDS011;8842;51.244;7.102;2022-11-20T11:28:36;6.10;;;5.60;;
17449;SDS011;8842;51.244;7.102;2022-11-20T11:38:58;13.03;;;5.40;;
17449;SDS011;8842;51.244;7.102;2022-11-20T11:44:12;6.23;;;5.83;;
17449;SDS011;8842;51.244;7.102;2022-11-20T11:49:24;9.50;;;6.83;;
17449;SDS011;8842;51.244;7.102;2022-11-20T11:54:30;7.73;;;7.17;;
17449;SDS011;8842;51.244;7.102;2022-11-20T11:59:40;6.77;;;6.33;;
17449;SDS011;8842;51.244;7.102;2022-11-20T12:10:04;7.07;;;6.57;;
17449;SDS011;8842;51.244;7.102;2022-11-20T12:15:22;8.83;;;7.13;;
17449;SDS011;8842;51.244;7.102;2022-11-20T12:20:28;6.97;;;6.63;;
17449;SDS011;8842;51.244;7.102;2022-11-20T12:25:35;7.07;;;6.77;;
17449;SDS011;8842;51.244;7.102;2022-11-20T12:30:42;6.97;;;6.47;;
17449;SDS011;8842;51.244;7.102;2022-11-20T12:36:01;7.10;;;6.73;;
17449;SDS011;8842;51.244;7.102;2022-11-20T12:41:18;15.50;;;8.27;;
17449;SDS011;8842;51.244;7.102;2022-11-20T12:51:59;8.53;;;8.13;;
17449;SDS011;8842;51.244;7.102;2022-11-20T13:02:23;7.13;;;6.73;;
17449;SDS011;8842;51.244;7.102;2022-11-20T13:07:31;8.27;;;7.70;;
17449;SDS011;8842;51.244;7.102;2022-11-20T13:12:44;7.87;;;7.47;;
17449;SDS011;8842;51.244;7.102;2022-11-20T13:17:53;8.07;;;7.37;;
17449;SDS011;8842;51.244;7.102;2022-11-20T13:23:05;7.77;;;7.37;;
17449;SDS011;8842;51.244;7.102;2022-11-20T13:28:26;7.07;;;6.77;;
17449;SDS011;8842;51.244;7.102;2022-11-20T13:33:38;7.80;;;7.07;;
17449;SDS011;8842;51.244;7.102;2022-11-20T13:38:43;7.80;;;7.40;;
17449;SDS011;8842;51.244;7.102;2022-11-20T13:43:57;7.03;;;6.63;;
17449;SDS011;8842;51.244;7.102;2022-11-20T13:54:41;7.23;;;6.83;;
17449;SDS011;8842;51.244;7.102;2022-11-20T13:59:56;7.37;;;6.97;;
17449;SDS011;8842;51.244;7.102;2022-11-20T14:05:13;8.47;;;7.73;;
17449;SDS011;8842;51.244;7.102;2022-11-20T14:15:33;8.93;;;8.27;;
17449;SDS011;8842;51.244;7.102;2022-11-20T14:20:45;7.20;;;6.90;;
17449;SDS011;8842;51.244;7.102;2022-11-20T14:25:49;7.57;;;7.17;;
17449;SDS011;8842;51.244;7.102;2022-11-20T14:31:01;7.30;;;6.90;;
17449;SDS011;8842;51.244;7.102;2022-11-20T14:36:07;7.47;;;7.10;;
17449;SDS011;8842;51.244;7.102;2022-11-20T14:41:21;8.53;;;7.70;;
17449;SDS011;8842;51.244;7.102;2022-11-20T14:46:26;7.23;;;6.93;;
17449;SDS011;8842;51.244;7.102;2022-11-20T14:51:34;8.00;;;7.37;;
17449;SDS011;8842;51.244;7.102;2022-11-20T14:56:41;9.90;;;7.07;;
17449;SDS011;8842;51.244;7.102;2022-11-20T15:07:04;8.30;;;7.67;;
17449;SDS011;8842;51.244;7.102;2022-11-20T15:12:16;8.73;;;7.63;;
17449;SDS011;8842;51.244;7.102;2022-11-20T15:17:21;7.50;;;7.10;;
17449;SDS011;8842;51.244;7.102;2022-11-20T15:22:25;9.10;;;8.13;;
17449;SDS011;8842;51.244;7.102;2022-11-20T15:27:29;8.87;;;8.07;;
17449;SDS011;8842;51.244;7.102;2022-11-20T15:32:33;8.13;;;7.63;;
17449;SDS011;8842;51.244;7.102;2022-11-20T15:37:45;7.90;;;7.20;;
17449;SDS011;8842;51.244;7.102;2022-11-20T15:42:49;8.53;;;7.87;;
17449;SDS011;8842;51.244;7.102;2022-11-20T15:48:08;9.53;;;8.00;;
17449;SDS011;8842;51.244;7.102;2022-11-20T15:53:14;6.90;;;6.60;;
17449;SDS011;8842;51.244;7.102;2022-11-20T15:58:18;8.37;;;7.87;;
17449;SDS011;8842;51.244;7.102;2022-11-20T16:08:36;9.40;;;8.40;;
17449;SDS011;8842;51.244;7.102;2022-11-20T16:13:40;15.77;;;10.47;;
17449;SDS011;8842;51.244;7.102;2022-11-20T16:18:55;16.70;;;11.37;;
17449;SDS011;8842;51.244;7.102;2022-11-20T16:23:59;10.10;;;9.53;;
17449;SDS011;8842;51.244;7.102;2022-11-20T16:29:12;8.30;;;7.90;;
17449;SDS011;8842;51.244;7.102;2022-11-20T16:34:27;9.37;;;8.87;;
17449;SDS011;8842;51.244;7.102;2022-11-20T16:39:31;8.63;;;8.23;;
17449;SDS011;8842;51.244;7.102;2022-11-20T16:49:48;11.30;;;10.43;;
17449;SDS011;8842;51.244;7.102;2022-11-20T17:00:07;10.30;;;9.80;;
17449;SDS011;8842;51.244;7.102;2022-11-20T17:05:13;9.73;;;9.23;;
17449;SDS011;8842;51.244;7.102;2022-11-20T17:10:31;10.63;;;10.13;;
17449;SDS011;8842;51.244;7.102;2022-11-20T17:15:35;10.00;;;9.50;;
17449;SDS011;8842;51.244;7.102;2022-11-20T17:20:51;10.70;;;10.10;;
17449;SDS011;8842;51.244;7.102;2022-11-20T17:26:00;10.30;;;9.80;;
17449;SDS011;8842;51.244;7.102;2022-11-20T17:36:19;12.50;;;11.80;;
17449;SDS011;8842;51.244;7.102;2022-11-20T17:41:25;10.43;;;9.83;;
17449;SDS011;8842;51.244;7.102;2022-11-20T17:46:39;9.93;;;9.43;;
17449;SDS011;8842;51.244;7.102;2022-11-20T17:51:44;11.07;;;10.47;;
17449;SDS011;8842;51.244;7.102;2022-11-20T17:56:58;11.17;;;10.57;;
17449;SDS011;8842;51.244;7.102;2022-11-20T18:02:20;12.40;;;11.70;;
17449;SDS011;8842;51.244;7.102;2022-11-20T18:07:32;11.77;;;11.17;;
17449;SDS011;8842;51.244;7.102;2022-11-20T18:12:37;11.60;;;11.00;;
17449;SDS011;8842;51.244;7.102;2022-11-20T18:17:41;11.70;;;11.10;;
17449;SDS011;8842;51.244;7.102;2022-11-20T18:22:45;12.10;;;11.40;;
17449;SDS011;8842;51.244;7.102;2022-11-20T18:27:49;12.40;;;11.70;;
17449;SDS011;8842;51.244;7.102;2022-11-20T18:33:04;11.73;;;11.10;;
17449;SDS011;8842;51.244;7.102;2022-11-20T18:43:26;11.67;;;11.07;;
17449;SDS011;8842;51.244;7.102;2022-11-20T18:48:50;11.33;;;10.73;;
17449;SDS011;8842;51.244;7.102;2022-11-20T18:53:54;11.37;;;10.77;;
17449;SDS011;8842;51.244;7.102;2022-11-20T18:59:09;11.10;;;10.50;;
17449;SDS011;8842;51.244;7.102;2022-11-20T19:04:15;11.20;;;10.60;;
17449;SDS011;8842;51.244;7.102;2022-11-20T19:09:29;11.20;;;10.60;;
17449;SDS011;8842;51.244;7.102;2022-11-20T19:19:53;10.93;;;10.33;;
17449;SDS011;8842;51.244;7.102;2022-11-20T19:24:57;10.60;;;10.10;;
17449;SDS011;8842;51.244;7.102;2022-11-20T19:30:10;10.90;;;10.30;;
17449;SDS011;8842;51.244;7.102;2022-11-20T19:35:16;11.00;;;10.40;;
17449;SDS011;8842;51.244;7.102;2022-11-20T19:40:30;11.10;;;10.50;;
17449;SDS011;8842;51.244;7.102;2022-11-20T19:45:34;11.80;;;11.20;;
17449;SDS011;8842;51.244;7.102;2022-11-20T19:50:38;11.90;;;11.30;;
17449;SDS011;8842;51.244;7.102;2022-11-20T19:55:43;11.93;;;11.33;;
17449;SDS011;8842;51.244;7.102;2022-11-20T20:01:13;12.37;;;11.77;;
17449;SDS011;8842;51.244;7.102;2022-11-20T20:06:19;12.20;;;11.60;;
17449;SDS011;8842;51.244;7.102;2022-11-20T20:11:25;12.00;;;11.40;;
17449;SDS011;8842;51.244;7.102;2022-11-20T20:16:40;12.13;;;11.53;;
17449;SDS011;8842;51.244;7.102;2022-11-20T20:21:45;12.40;;;11.80;;
17449;SDS011;8842;51.244;7.102;2022-11-20T20:26:51;11.63;;;11.03;;
17449;SDS011;8842;51.244;7.102;2022-11-20T20:32:03;11.93;;;11.33;;
17449;SDS011;8842;51.244;7.102;2022-11-20T20:37:07;12.47;;;11.87;;
17449;SDS011;8842;51.244;7.102;2022-11-20T20:42:12;12.50;;;11.90;;
17449;SDS011;8842;51.244;7.102;2022-11-20T20:47:29;12.50;;;11.90;;
17449;SDS011;8842;51.244;7.102;2022-11-20T20:52:34;12.70;;;12.00;;
17449;SDS011;8842;51.244;7.102;2022-11-20T20:57:47;12.40;;;11.80;;
17449;SDS011;8842;51.244;7.102;2022-11-20T21:08:05;12.00;;;11.40;;
17449;SDS011;8842;51.244;7.102;2022-11-20T21:13:24;12.10;;;11.50;;
17449;SDS011;8842;51.244;7.102;2022-11-20T21:18:45;12.37;;;11.77;;
17449;SDS011;8842;51.244;7.102;2022-11-20T21:23:50;12.50;;;11.87;;
17449;SDS011;8842;51.244;7.102;2022-11-20T21:29:04;12.57;;;11.97;;
17449;SDS011;8842;51.244;7.102;2022-11-20T21:34:09;12.43;;;11.83;;
17449;SDS011;8842;51.244;7.102;2022-11-20T21:39:23;12.53;;;11.93;;
17449;SDS011;8842;51.244;7.102;2022-11-20T21:49:41;12.07;;;11.47;;
17449;SDS011;8842;51.244;7.102;2022-11-20T21:54:45;12.40;;;11.80;;
17449;SDS011;8842;51.244;7.102;2022-11-20T21:59:49;12.83;;;12.17;;
17449;SDS011;8842;51.244;7.102;2022-11-20T22:05:04;12.60;;;12.00;;
17449;SDS011;8842;51.244;7.102;2022-11-20T22:10:09;12.43;;;11.83;;
17449;SDS011;8842;51.244;7.102;2022-11-20T22:15:30;12.17;;;11.57;;
17449;SDS011;8842;51.244;7.102;2022-11-20T22:20:34;12.57;;;11.93;;
17449;SDS011;8842;51.244;7.102;2022-11-20T22:25:54;12.90;;;12.20;;
17449;SDS011;8842;51.244;7.102;2022-11-20T22:31:01;12.80;;;12.10;;
17449;SDS011;8842;51.244;7.102;2022-11-20T22:36:15;13.20;;;12.50;;
17449;SDS011;8842;51.244;7.102;2022-11-20T22:46:34;12.43;;;11.83;;
17449;SDS011;8842;51.244;7.102;2022-11-20T22:51:39;12.33;;;11.73;;
17449;SDS011;8842;51.244;7.102;2022-11-20T22:56:54;12.67;;;12.00;;
17449;SDS011;8842;51.244;7.102;2022-11-20T23:01:58;12.80;;;12.10;;
17449;SDS011;8842;51.244;7.102;2022-11-20T23:07:12;12.90;;;12.20;;
17449;SDS011;8842;51.244;7.102;2022-11-20T23:12:16;12.77;;;12.07;;
17449;SDS011;8842;51.244;7.102;2022-11-20T23:17:29;12.00;;;11.40;;
17449;SDS011;8842;51.244;7.102;2022-11-20T23:22:34;12.07;;;11.47;;
17449;SDS011;8842;51.244;7.102;2022-11-20T23:27:54;13.20;;;12.50;;
17449;SDS011;8842;51.244;7.102;2022-11-20T23:38:12;11.80;;;11.20;;
17449;SDS011;8842;51.244;7.102;2022-11-20T23:48:30;12.70;;;12.00;;
17449;SDS011;8842;51.244;7.102;2022-11-20T23:53:35;12.37;;;11.77;;
17449;SDS011;8842;51.244;7.102;2022-11-20T23:58:48;12.50;;;11.90;;
